sensor_id;sensor_type;location;lat;lon;timestamp;P1;durP1;ratioP1;P2;durP2;ratioP2
14754;SDS011;7469;50.906;6.952;2022-08-11T00:02:29;6.90;;;3.10;;
14754;SDS011;7469;50.906;6.952;2022-08-11T00:05:02;6.33;;;3.10;;
14754;SDS011;7469;50.906;6.952;2022-08-11T00:07:33;6.27;;;3.10;;
14754;SDS011;7469;50.906;6.952;2022-08-11T00:10:09;3.90;;;2.83;;
14754;SDS011;7469;50.906;6.952;2022-08-11T00:12:38;7.07;;;2.80;;
14754;SDS011;7469;50.906;6.952;2022-08-11T00:15:08;3.80;;;2.90;;
14754;SDS011;7469;50.906;6.952;2022-08-11T00:17:38;3.70;;;3.03;;
14754;SDS011;7469;50.906;6.952;2022-08-11T00:20:08;4.17;;;2.70;;
14754;SDS011;7469;50.906;6.952;2022-08-11T00:22:43;3.17;;;2.87;;
14754;SDS011;7469;50.906;6.952;2022-08-11T00:25:14;5.70;;;3.10;;
14754;SDS011;7469;50.906;6.952;2022-08-11T00:27:43;4.40;;;3.00;;
14754;SDS011;7469;50.906;6.952;2022-08-11T00:30:13;4.33;;;3.43;;
14754;SDS011;7469;50.906;6.952;2022-08-11T00:32:51;4.40;;;2.70;;
14754;SDS011;7469;50.906;6.952;2022-08-11T00:35:23;4.57;;;3.03;;
14754;SDS011;7469;50.906;6.952;2022-08-11T00:38:13;4.87;;;2.83;;
14754;SDS011;7469;50.906;6.952;2022-08-11T00:40:43;5.70;;;3.27;;
14754;SDS011;7469;50.906;6.952;2022-08-11T00:43:19;3.57;;;2.70;;
14754;SDS011;7469;50.906;6.952;2022-08-11T00:46:01;5.00;;;3.10;;
14754;SDS011;7469;50.906;6.952;2022-08-11T00:48:44;4.20;;;3.30;;
14754;SDS011;7469;50.906;6.952;2022-08-11T00:51:19;3.93;;;3.07;;
14754;SDS011;7469;50.906;6.952;2022-08-11T00:54:26;4.73;;;3.20;;
14754;SDS011;7469;50.906;6.952;2022-08-11T00:57:17;5.20;;;3.20;;
14754;SDS011;7469;50.906;6.952;2022-08-11T01:00:10;3.60;;;2.97;;
14754;SDS011;7469;50.906;6.952;2022-08-11T01:02:44;8.60;;;3.40;;
14754;SDS011;7469;50.906;6.952;2022-08-11T01:05:27;4.10;;;2.87;;
14754;SDS011;7469;50.906;6.952;2022-08-11T01:08:17;5.03;;;3.57;;
14754;SDS011;7469;50.906;6.952;2022-08-11T01:11:17;4.60;;;3.23;;
14754;SDS011;7469;50.906;6.952;2022-08-11T01:20:46;3.37;;;3.00;;
14754;SDS011;7469;50.906;6.952;2022-08-11T01:29:57;3.47;;;3.17;;
14754;SDS011;7469;50.906;6.952;2022-08-11T01:45:55;4.33;;;3.03;;
14754;SDS011;7469;50.906;6.952;2022-08-11T01:48:38;4.60;;;2.67;;
14754;SDS011;7469;50.906;6.952;2022-08-11T01:51:14;5.57;;;3.50;;
14754;SDS011;7469;50.906;6.952;2022-08-11T01:53:56;4.30;;;3.03;;
14754;SDS011;7469;50.906;6.952;2022-08-11T01:59:17;4.10;;;3.00;;
14754;SDS011;7469;50.906;6.952;2022-08-11T02:01:51;8.73;;;3.47;;
14754;SDS011;7469;50.906;6.952;2022-08-11T02:04:28;4.07;;;3.20;;
14754;SDS011;7469;50.906;6.952;2022-08-11T02:07:01;3.00;;;2.70;;
14754;SDS011;7469;50.906;6.952;2022-08-11T02:09:47;4.93;;;3.10;;
14754;SDS011;7469;50.906;6.952;2022-08-11T02:12:34;5.13;;;3.13;;
14754;SDS011;7469;50.906;6.952;2022-08-11T02:15:20;9.03;;;3.40;;
14754;SDS011;7469;50.906;6.952;2022-08-11T02:17:58;4.93;;;3.17;;
14754;SDS011;7469;50.906;6.952;2022-08-11T02:20:34;3.70;;;3.40;;
14754;SDS011;7469;50.906;6.952;2022-08-11T02:23:26;5.93;;;3.17;;
14754;SDS011;7469;50.906;6.952;2022-08-11T02:26:31;6.37;;;3.27;;
14754;SDS011;7469;50.906;6.952;2022-08-11T02:29:08;5.13;;;3.30;;
14754;SDS011;7469;50.906;6.952;2022-08-11T02:31:49;5.27;;;3.43;;
14754;SDS011;7469;50.906;6.952;2022-08-11T02:34:58;5.03;;;3.27;;
14754;SDS011;7469;50.906;6.952;2022-08-11T02:37:37;3.90;;;2.90;;
14754;SDS011;7469;50.906;6.952;2022-08-11T02:40:17;4.17;;;3.30;;
14754;SDS011;7469;50.906;6.952;2022-08-11T02:45:48;3.30;;;2.97;;
14754;SDS011;7469;50.906;6.952;2022-08-11T02:48:28;6.03;;;3.87;;
14754;SDS011;7469;50.906;6.952;2022-08-11T02:51:26;5.50;;;3.57;;
14754;SDS011;7469;50.906;6.952;2022-08-11T02:54:04;12.17;;;4.20;;
14754;SDS011;7469;50.906;6.952;2022-08-11T02:56:42;7.33;;;3.77;;
14754;SDS011;7469;50.906;6.952;2022-08-11T02:59:22;5.57;;;3.10;;
14754;SDS011;7469;50.906;6.952;2022-08-11T03:02:13;4.10;;;3.10;;
14754;SDS011;7469;50.906;6.952;2022-08-11T03:04:54;6.00;;;3.40;;
14754;SDS011;7469;50.906;6.952;2022-08-11T03:07:30;5.57;;;3.30;;
14754;SDS011;7469;50.906;6.952;2022-08-11T03:10:08;5.27;;;3.30;;
14754;SDS011;7469;50.906;6.952;2022-08-11T03:12:44;9.27;;;3.83;;
14754;SDS011;7469;50.906;6.952;2022-08-11T03:15:40;4.07;;;3.67;;
14754;SDS011;7469;50.906;6.952;2022-08-11T03:18:32;4.57;;;3.33;;
14754;SDS011;7469;50.906;6.952;2022-08-11T03:21:12;5.60;;;3.70;;
14754;SDS011;7469;50.906;6.952;2022-08-11T03:23:49;6.50;;;3.60;;
14754;SDS011;7469;50.906;6.952;2022-08-11T03:26:28;6.53;;;3.40;;
14754;SDS011;7469;50.906;6.952;2022-08-11T03:29:05;7.60;;;3.40;;
14754;SDS011;7469;50.906;6.952;2022-08-11T03:31:55;5.07;;;3.40;;
14754;SDS011;7469;50.906;6.952;2022-08-11T03:34:30;3.77;;;3.40;;
14754;SDS011;7469;50.906;6.952;2022-08-11T03:37:09;5.87;;;3.60;;
14754;SDS011;7469;50.906;6.952;2022-08-11T03:40:12;7.17;;;3.50;;
14754;SDS011;7469;50.906;6.952;2022-08-11T03:43:06;8.93;;;3.73;;
14754;SDS011;7469;50.906;6.952;2022-08-11T03:45:48;4.10;;;3.60;;
14754;SDS011;7469;50.906;6.952;2022-08-11T03:48:27;3.93;;;3.60;;
14754;SDS011;7469;50.906;6.952;2022-08-11T03:51:14;3.70;;;3.30;;
14754;SDS011;7469;50.906;6.952;2022-08-11T03:53:57;5.00;;;3.37;;
14754;SDS011;7469;50.906;6.952;2022-08-11T03:56:41;5.53;;;3.53;;
14754;SDS011;7469;50.906;6.952;2022-08-11T03:59:42;4.43;;;3.83;;
14754;SDS011;7469;50.906;6.952;2022-08-11T04:12:16;5.57;;;3.53;;
14754;SDS011;7469;50.906;6.952;2022-08-11T04:15:22;5.43;;;3.33;;
14754;SDS011;7469;50.906;6.952;2022-08-11T04:21:50;5.23;;;3.80;;
14754;SDS011;7469;50.906;6.952;2022-08-11T04:25:12;4.03;;;3.33;;
14754;SDS011;7469;50.906;6.952;2022-08-11T04:28:10;5.70;;;3.13;;
14754;SDS011;7469;50.906;6.952;2022-08-11T04:31:14;7.27;;;3.63;;
14754;SDS011;7469;50.906;6.952;2022-08-11T04:37:11;3.83;;;3.17;;
14754;SDS011;7469;50.906;6.952;2022-08-11T04:46:37;7.80;;;3.60;;
14754;SDS011;7469;50.906;6.952;2022-08-11T04:52:43;7.80;;;3.57;;
14754;SDS011;7469;50.906;6.952;2022-08-11T04:59:04;3.70;;;3.10;;
14754;SDS011;7469;50.906;6.952;2022-08-11T05:02:09;5.30;;;3.47;;
14754;SDS011;7469;50.906;6.952;2022-08-11T05:04:58;6.97;;;3.17;;
14754;SDS011;7469;50.906;6.952;2022-08-11T05:14:19;6.60;;;3.03;;
14754;SDS011;7469;50.906;6.952;2022-08-11T05:17:22;4.30;;;3.33;;
14754;SDS011;7469;50.906;6.952;2022-08-11T05:20:16;6.17;;;3.47;;
14754;SDS011;7469;50.906;6.952;2022-08-11T05:23:03;5.87;;;3.53;;
14754;SDS011;7469;50.906;6.952;2022-08-11T05:25:51;4.60;;;3.27;;
14754;SDS011;7469;50.906;6.952;2022-08-11T05:29:00;8.30;;;3.23;;
14754;SDS011;7469;50.906;6.952;2022-08-11T05:31:50;8.00;;;3.07;;
14754;SDS011;7469;50.906;6.952;2022-08-11T05:34:45;7.83;;;3.60;;
14754;SDS011;7469;50.906;6.952;2022-08-11T05:37:21;7.27;;;3.60;;
14754;SDS011;7469;50.906;6.952;2022-08-11T05:39:59;16.70;;;3.83;;
14754;SDS011;7469;50.906;6.952;2022-08-11T05:42:53;16.07;;;3.90;;
14754;SDS011;7469;50.906;6.952;2022-08-11T05:45:41;11.37;;;3.60;;
14754;SDS011;7469;50.906;6.952;2022-08-11T05:48:31;10.47;;;3.37;;
14754;SDS011;7469;50.906;6.952;2022-08-11T05:51:20;9.60;;;3.17;;
14754;SDS011;7469;50.906;6.952;2022-08-11T05:54:20;8.73;;;3.47;;
14754;SDS011;7469;50.906;6.952;2022-08-11T05:57:07;6.47;;;3.13;;
14754;SDS011;7469;50.906;6.952;2022-08-11T05:59:58;8.53;;;3.37;;
14754;SDS011;7469;50.906;6.952;2022-08-11T06:02:27;10.80;;;3.20;;
14754;SDS011;7469;50.906;6.952;2022-08-11T06:04:56;6.47;;;3.30;;
14754;SDS011;7469;50.906;6.952;2022-08-11T06:07:28;13.00;;;3.97;;
14754;SDS011;7469;50.906;6.952;2022-08-11T06:10:23;10.53;;;3.37;;
14754;SDS011;7469;50.906;6.952;2022-08-11T06:12:53;12.70;;;3.40;;
14754;SDS011;7469;50.906;6.952;2022-08-11T06:15:22;5.37;;;3.03;;
14754;SDS011;7469;50.906;6.952;2022-08-11T06:17:51;12.23;;;3.63;;
14754;SDS011;7469;50.906;6.952;2022-08-11T06:20:21;10.17;;;3.07;;
14754;SDS011;7469;50.906;6.952;2022-08-11T06:22:56;15.33;;;3.37;;
14754;SDS011;7469;50.906;6.952;2022-08-11T06:25:29;10.57;;;3.00;;
14754;SDS011;7469;50.906;6.952;2022-08-11T06:27:58;7.47;;;2.70;;
14754;SDS011;7469;50.906;6.952;2022-08-11T06:30:32;4.77;;;2.70;;
14754;SDS011;7469;50.906;6.952;2022-08-11T06:33:06;7.90;;;3.17;;
14754;SDS011;7469;50.906;6.952;2022-08-11T06:35:37;4.97;;;3.30;;
14754;SDS011;7469;50.906;6.952;2022-08-11T06:38:16;13.37;;;3.40;;
14754;SDS011;7469;50.906;6.952;2022-08-11T06:40:55;7.97;;;3.20;;
14754;SDS011;7469;50.906;6.952;2022-08-11T06:43:47;6.13;;;3.10;;
14754;SDS011;7469;50.906;6.952;2022-08-11T06:46:24;7.07;;;2.90;;
14754;SDS011;7469;50.906;6.952;2022-08-11T06:48:55;10.87;;;3.53;;
14754;SDS011;7469;50.906;6.952;2022-08-11T06:51:24;4.93;;;3.00;;
14754;SDS011;7469;50.906;6.952;2022-08-11T06:53:59;6.83;;;3.23;;
14754;SDS011;7469;50.906;6.952;2022-08-11T06:56:31;5.67;;;2.73;;
14754;SDS011;7469;50.906;6.952;2022-08-11T06:59:40;8.43;;;2.70;;
14754;SDS011;7469;50.906;6.952;2022-08-11T07:02:27;6.20;;;3.00;;
14754;SDS011;7469;50.906;6.952;2022-08-11T07:05:00;7.63;;;3.23;;
14754;SDS011;7469;50.906;6.952;2022-08-11T07:07:42;6.33;;;3.30;;
14754;SDS011;7469;50.906;6.952;2022-08-11T07:11:07;10.87;;;3.00;;
14754;SDS011;7469;50.906;6.952;2022-08-11T07:14:10;7.83;;;3.20;;
14754;SDS011;7469;50.906;6.952;2022-08-11T07:17:03;8.40;;;3.03;;
14754;SDS011;7469;50.906;6.952;2022-08-11T07:19:34;13.97;;;3.10;;
14754;SDS011;7469;50.906;6.952;2022-08-11T07:22:23;7.90;;;2.63;;
14754;SDS011;7469;50.906;6.952;2022-08-11T07:25:13;4.53;;;3.07;;
14754;SDS011;7469;50.906;6.952;2022-08-11T07:28:01;8.07;;;3.20;;
14754;SDS011;7469;50.906;6.952;2022-08-11T07:30:55;8.30;;;3.10;;
14754;SDS011;7469;50.906;6.952;2022-08-11T07:33:29;7.23;;;3.07;;
14754;SDS011;7469;50.906;6.952;2022-08-11T07:36:28;8.83;;;2.70;;
14754;SDS011;7469;50.906;6.952;2022-08-11T07:38:58;7.90;;;3.20;;
14754;SDS011;7469;50.906;6.952;2022-08-11T07:41:27;7.27;;;2.80;;
14754;SDS011;7469;50.906;6.952;2022-08-11T07:44:01;10.57;;;3.00;;
14754;SDS011;7469;50.906;6.952;2022-08-11T07:46:35;8.47;;;3.07;;
14754;SDS011;7469;50.906;6.952;2022-08-11T07:49:26;8.00;;;3.10;;
14754;SDS011;7469;50.906;6.952;2022-08-11T07:52:13;7.97;;;2.97;;
14754;SDS011;7469;50.906;6.952;2022-08-11T07:54:55;5.93;;;3.23;;
14754;SDS011;7469;50.906;6.952;2022-08-11T07:57:25;8.77;;;2.90;;
14754;SDS011;7469;50.906;6.952;2022-08-11T08:00:35;5.00;;;2.50;;
14754;SDS011;7469;50.906;6.952;2022-08-11T08:03:26;4.60;;;2.80;;
14754;SDS011;7469;50.906;6.952;2022-08-11T08:06:20;4.10;;;2.73;;
14754;SDS011;7469;50.906;6.952;2022-08-11T08:09:07;7.47;;;3.10;;
14754;SDS011;7469;50.906;6.952;2022-08-11T08:11:54;5.27;;;2.87;;
14754;SDS011;7469;50.906;6.952;2022-08-11T08:14:40;10.13;;;3.00;;
14754;SDS011;7469;50.906;6.952;2022-08-11T08:17:28;8.87;;;2.43;;
14754;SDS011;7469;50.906;6.952;2022-08-11T08:20:35;4.53;;;2.70;;
14754;SDS011;7469;50.906;6.952;2022-08-11T08:23:04;5.97;;;2.63;;
14754;SDS011;7469;50.906;6.952;2022-08-11T08:25:35;7.47;;;3.03;;
14754;SDS011;7469;50.906;6.952;2022-08-11T08:28:06;5.93;;;2.90;;
14754;SDS011;7469;50.906;6.952;2022-08-11T08:30:36;5.77;;;2.80;;
14754;SDS011;7469;50.906;6.952;2022-08-11T08:33:16;5.70;;;2.60;;
14754;SDS011;7469;50.906;6.952;2022-08-11T08:35:49;5.17;;;2.77;;
14754;SDS011;7469;50.906;6.952;2022-08-11T08:38:38;10.80;;;3.20;;
14754;SDS011;7469;50.906;6.952;2022-08-11T08:41:07;4.50;;;2.57;;
14754;SDS011;7469;50.906;6.952;2022-08-11T08:43:41;8.63;;;2.77;;
14754;SDS011;7469;50.906;6.952;2022-08-11T08:46:14;9.60;;;2.90;;
14754;SDS011;7469;50.906;6.952;2022-08-11T08:48:48;8.80;;;2.80;;
14754;SDS011;7469;50.906;6.952;2022-08-11T08:51:19;11.30;;;3.10;;
14754;SDS011;7469;50.906;6.952;2022-08-11T08:54:22;8.27;;;2.90;;
14754;SDS011;7469;50.906;6.952;2022-08-11T08:56:55;6.90;;;2.20;;
14754;SDS011;7469;50.906;6.952;2022-08-11T08:59:25;9.00;;;2.87;;
14754;SDS011;7469;50.906;6.952;2022-08-11T09:02:13;5.90;;;2.70;;
14754;SDS011;7469;50.906;6.952;2022-08-11T09:04:44;7.87;;;2.57;;
14754;SDS011;7469;50.906;6.952;2022-08-11T09:07:14;4.17;;;2.40;;
14754;SDS011;7469;50.906;6.952;2022-08-11T09:09:44;9.33;;;2.73;;
14754;SDS011;7469;50.906;6.952;2022-08-11T09:12:15;9.17;;;2.67;;
14754;SDS011;7469;50.906;6.952;2022-08-11T09:15:04;5.80;;;3.00;;
14754;SDS011;7469;50.906;6.952;2022-08-11T09:17:38;5.83;;;2.50;;
14754;SDS011;7469;50.906;6.952;2022-08-11T09:20:11;5.20;;;2.47;;
14754;SDS011;7469;50.906;6.952;2022-08-11T09:22:42;3.40;;;2.40;;
14754;SDS011;7469;50.906;6.952;2022-08-11T09:25:48;4.40;;;2.13;;
14754;SDS011;7469;50.906;6.952;2022-08-11T09:28:36;5.97;;;2.43;;
14754;SDS011;7469;50.906;6.952;2022-08-11T09:31:07;5.47;;;2.57;;
14754;SDS011;7469;50.906;6.952;2022-08-11T09:33:38;21.27;;;2.67;;
14754;SDS011;7469;50.906;6.952;2022-08-11T09:36:10;4.40;;;2.30;;
14754;SDS011;7469;50.906;6.952;2022-08-11T09:38:56;6.18;;;2.40;;
14754;SDS011;7469;50.906;6.952;2022-08-11T09:41:44;3.83;;;2.33;;
14754;SDS011;7469;50.906;6.952;2022-08-11T09:44:28;8.95;;;2.50;;
14754;SDS011;7469;50.906;6.952;2022-08-11T09:47:16;4.47;;;2.40;;
14754;SDS011;7469;50.906;6.952;2022-08-11T09:49:48;8.77;;;2.30;;
14754;SDS011;7469;50.906;6.952;2022-08-11T09:52:19;2.15;;;1.92;;
14754;SDS011;7469;50.906;6.952;2022-08-11T09:54:51;4.10;;;2.55;;
14754;SDS011;7469;50.906;6.952;2022-08-11T09:57:21;8.25;;;2.28;;
14754;SDS011;7469;50.906;6.952;2022-08-11T10:00:08;5.50;;;2.20;;
14754;SDS011;7469;50.906;6.952;2022-08-11T10:02:40;6.65;;;2.30;;
14754;SDS011;7469;50.906;6.952;2022-08-11T10:05:10;3.38;;;2.28;;
14754;SDS011;7469;50.906;6.952;2022-08-11T10:07:59;5.47;;;2.30;;
14754;SDS011;7469;50.906;6.952;2022-08-11T10:10:28;5.40;;;2.30;;
14754;SDS011;7469;50.906;6.952;2022-08-11T10:13:03;6.05;;;2.90;;
14754;SDS011;7469;50.906;6.952;2022-08-11T10:15:54;5.65;;;2.58;;
14754;SDS011;7469;50.906;6.952;2022-08-11T10:18:40;8.20;;;2.85;;
14754;SDS011;7469;50.906;6.952;2022-08-11T10:21:16;6.28;;;2.25;;
14754;SDS011;7469;50.906;6.952;2022-08-11T10:23:57;5.85;;;2.50;;
14754;SDS011;7469;50.906;6.952;2022-08-11T10:26:44;6.78;;;2.50;;
14754;SDS011;7469;50.906;6.952;2022-08-11T10:29:21;2.80;;;2.22;;
14754;SDS011;7469;50.906;6.952;2022-08-11T10:32:17;3.40;;;2.53;;
14754;SDS011;7469;50.906;6.952;2022-08-11T10:35:25;4.82;;;2.33;;
14754;SDS011;7469;50.906;6.952;2022-08-11T10:37:54;3.80;;;2.92;;
14754;SDS011;7469;50.906;6.952;2022-08-11T10:40:36;4.50;;;2.60;;
14754;SDS011;7469;50.906;6.952;2022-08-11T10:43:06;4.15;;;2.30;;
14754;SDS011;7469;50.906;6.952;2022-08-11T10:45:40;4.90;;;2.42;;
14754;SDS011;7469;50.906;6.952;2022-08-11T10:48:29;11.65;;;3.30;;
14754;SDS011;7469;50.906;6.952;2022-08-11T10:51:01;6.53;;;2.67;;
14754;SDS011;7469;50.906;6.952;2022-08-11T10:53:44;3.92;;;2.30;;
14754;SDS011;7469;50.906;6.952;2022-08-11T10:56:34;2.20;;;2.00;;
14754;SDS011;7469;50.906;6.952;2022-08-11T10:59:22;5.30;;;2.40;;
14754;SDS011;7469;50.906;6.952;2022-08-11T11:01:52;2.88;;;2.30;;
14754;SDS011;7469;50.906;6.952;2022-08-11T11:04:22;7.65;;;2.58;;
14754;SDS011;7469;50.906;6.952;2022-08-11T11:07:02;5.22;;;2.50;;
14754;SDS011;7469;50.906;6.952;2022-08-11T11:09:32;3.00;;;2.30;;
14754;SDS011;7469;50.906;6.952;2022-08-11T11:12:08;7.80;;;2.90;;
14754;SDS011;7469;50.906;6.952;2022-08-11T11:14:55;3.90;;;2.25;;
14754;SDS011;7469;50.906;6.952;2022-08-11T11:17:45;5.72;;;2.40;;
14754;SDS011;7469;50.906;6.952;2022-08-11T11:20:27;3.38;;;2.42;;
14754;SDS011;7469;50.906;6.952;2022-08-11T11:23:10;6.15;;;2.63;;
14754;SDS011;7469;50.906;6.952;2022-08-11T11:29:06;3.72;;;2.25;;
14754;SDS011;7469;50.906;6.952;2022-08-11T11:31:52;3.10;;;2.20;;
14754;SDS011;7469;50.906;6.952;2022-08-11T11:34:39;5.72;;;2.20;;
14754;SDS011;7469;50.906;6.952;2022-08-11T11:37:20;6.60;;;2.22;;
14754;SDS011;7469;50.906;6.952;2022-08-11T11:39:50;3.70;;;2.65;;
14754;SDS011;7469;50.906;6.952;2022-08-11T11:42:19;2.63;;;2.15;;
14754;SDS011;7469;50.906;6.952;2022-08-11T11:44:50;3.25;;;2.33;;
14754;SDS011;7469;50.906;6.952;2022-08-11T11:47:22;5.85;;;2.40;;
14754;SDS011;7469;50.906;6.952;2022-08-11T11:49:51;7.65;;;2.60;;
14754;SDS011;7469;50.906;6.952;2022-08-11T11:52:20;4.03;;;2.40;;
14754;SDS011;7469;50.906;6.952;2022-08-11T11:54:49;2.70;;;2.07;;
14754;SDS011;7469;50.906;6.952;2022-08-11T11:57:21;4.23;;;2.60;;
14754;SDS011;7469;50.906;6.952;2022-08-11T12:00:26;6.50;;;2.67;;
14754;SDS011;7469;50.906;6.952;2022-08-11T12:03:14;4.90;;;2.30;;
14754;SDS011;7469;50.906;6.952;2022-08-11T12:05:43;3.03;;;2.30;;
14754;SDS011;7469;50.906;6.952;2022-08-11T12:08:12;5.30;;;3.00;;
14754;SDS011;7469;50.906;6.952;2022-08-11T12:10:43;3.20;;;2.00;;
14754;SDS011;7469;50.906;6.952;2022-08-11T12:13:14;3.33;;;2.27;;
14754;SDS011;7469;50.906;6.952;2022-08-11T12:16:02;4.33;;;2.50;;
14754;SDS011;7469;50.906;6.952;2022-08-11T12:18:52;3.43;;;2.43;;
14754;SDS011;7469;50.906;6.952;2022-08-11T12:21:22;5.57;;;2.60;;
14754;SDS011;7469;50.906;6.952;2022-08-11T12:23:53;6.77;;;2.60;;
14754;SDS011;7469;50.906;6.952;2022-08-11T12:26:41;8.63;;;2.50;;
14754;SDS011;7469;50.906;6.952;2022-08-11T12:29:43;5.80;;;2.60;;
14754;SDS011;7469;50.906;6.952;2022-08-11T12:32:22;3.00;;;2.10;;
14754;SDS011;7469;50.906;6.952;2022-08-11T12:34:53;6.23;;;2.60;;
14754;SDS011;7469;50.906;6.952;2022-08-11T12:37:23;3.20;;;2.33;;
14754;SDS011;7469;50.906;6.952;2022-08-11T12:39:57;3.00;;;2.50;;
14754;SDS011;7469;50.906;6.952;2022-08-11T12:43:06;4.53;;;2.07;;
14754;SDS011;7469;50.906;6.952;2022-08-11T12:46:05;4.20;;;2.30;;
14754;SDS011;7469;50.906;6.952;2022-08-11T12:48:39;2.23;;;2.00;;
14754;SDS011;7469;50.906;6.952;2022-08-11T12:51:30;18.00;;;4.87;;
14754;SDS011;7469;50.906;6.952;2022-08-11T12:54:40;10.07;;;2.87;;
14754;SDS011;7469;50.906;6.952;2022-08-11T12:57:17;9.40;;;2.40;;
14754;SDS011;7469;50.906;6.952;2022-08-11T13:00:09;2.93;;;2.57;;
14754;SDS011;7469;50.906;6.952;2022-08-11T13:02:56;3.43;;;2.37;;
14754;SDS011;7469;50.906;6.952;2022-08-11T13:05:45;4.27;;;2.53;;
14754;SDS011;7469;50.906;6.952;2022-08-11T13:08:16;5.00;;;2.20;;
14754;SDS011;7469;50.906;6.952;2022-08-11T13:10:44;4.33;;;2.57;;
14754;SDS011;7469;50.906;6.952;2022-08-11T13:13:30;4.70;;;2.33;;
14754;SDS011;7469;50.906;6.952;2022-08-11T13:16:19;5.37;;;2.23;;
14754;SDS011;7469;50.906;6.952;2022-08-11T13:18:49;3.07;;;2.03;;
14754;SDS011;7469;50.906;6.952;2022-08-11T13:21:20;3.33;;;2.23;;
14754;SDS011;7469;50.906;6.952;2022-08-11T13:23:49;5.67;;;2.70;;
14754;SDS011;7469;50.906;6.952;2022-08-11T13:26:31;4.37;;;2.23;;
14754;SDS011;7469;50.906;6.952;2022-08-11T13:29:18;2.80;;;2.10;;
14754;SDS011;7469;50.906;6.952;2022-08-11T13:31:48;4.53;;;2.37;;
14754;SDS011;7469;50.906;6.952;2022-08-11T13:34:17;5.60;;;2.70;;
14754;SDS011;7469;50.906;6.952;2022-08-11T13:36:48;3.77;;;2.30;;
14754;SDS011;7469;50.906;6.952;2022-08-11T13:39:18;3.10;;;2.47;;
14754;SDS011;7469;50.906;6.952;2022-08-11T13:41:49;3.40;;;2.30;;
14754;SDS011;7469;50.906;6.952;2022-08-11T13:44:18;2.83;;;2.30;;
14754;SDS011;7469;50.906;6.952;2022-08-11T13:46:51;4.50;;;2.40;;
14754;SDS011;7469;50.906;6.952;2022-08-11T13:49:22;5.40;;;2.70;;
14754;SDS011;7469;50.906;6.952;2022-08-11T13:51:52;2.77;;;2.23;;
14754;SDS011;7469;50.906;6.952;2022-08-11T13:54:22;12.83;;;2.63;;
14754;SDS011;7469;50.906;6.952;2022-08-11T13:56:53;5.27;;;2.50;;
14754;SDS011;7469;50.906;6.952;2022-08-11T13:59:26;5.07;;;2.47;;
14754;SDS011;7469;50.906;6.952;2022-08-11T14:01:57;5.90;;;2.83;;
14754;SDS011;7469;50.906;6.952;2022-08-11T14:04:51;4.53;;;2.33;;
14754;SDS011;7469;50.906;6.952;2022-08-11T14:07:24;4.57;;;2.33;;
14754;SDS011;7469;50.906;6.952;2022-08-11T14:10:00;3.30;;;2.73;;
14754;SDS011;7469;50.906;6.952;2022-08-11T14:12:30;5.33;;;2.27;;
14754;SDS011;7469;50.906;6.952;2022-08-11T14:15:18;4.47;;;2.40;;
14754;SDS011;7469;50.906;6.952;2022-08-11T14:17:51;6.07;;;2.40;;
14754;SDS011;7469;50.906;6.952;2022-08-11T14:20:22;12.53;;;2.37;;
14754;SDS011;7469;50.906;6.952;2022-08-11T14:23:12;5.13;;;2.53;;
14754;SDS011;7469;50.906;6.952;2022-08-11T14:25:40;5.17;;;2.70;;
14754;SDS011;7469;50.906;6.952;2022-08-11T14:28:30;4.22;;;2.60;;
14754;SDS011;7469;50.906;6.952;2022-08-11T14:31:11;3.63;;;2.40;;
14754;SDS011;7469;50.906;6.952;2022-08-11T14:33:40;4.43;;;2.47;;
14754;SDS011;7469;50.906;6.952;2022-08-11T14:36:27;4.27;;;2.23;;
14754;SDS011;7469;50.906;6.952;2022-08-11T14:39:01;3.87;;;2.27;;
14754;SDS011;7469;50.906;6.952;2022-08-11T14:41:32;5.17;;;2.73;;
14754;SDS011;7469;50.906;6.952;2022-08-11T14:44:38;7.27;;;2.57;;
14754;SDS011;7469;50.906;6.952;2022-08-11T14:47:27;7.97;;;2.80;;
14754;SDS011;7469;50.906;6.952;2022-08-11T14:49:57;3.40;;;2.25;;
14754;SDS011;7469;50.906;6.952;2022-08-11T14:52:38;5.00;;;2.70;;
14754;SDS011;7469;50.906;6.952;2022-08-11T14:55:13;6.10;;;2.40;;
14754;SDS011;7469;50.906;6.952;2022-08-11T14:57:59;8.50;;;2.70;;
14754;SDS011;7469;50.906;6.952;2022-08-11T15:00:29;5.20;;;2.70;;
14754;SDS011;7469;50.906;6.952;2022-08-11T15:02:59;2.53;;;2.27;;
14754;SDS011;7469;50.906;6.952;2022-08-11T15:05:40;2.53;;;2.00;;
14754;SDS011;7469;50.906;6.952;2022-08-11T15:08:24;4.67;;;2.83;;
14754;SDS011;7469;50.906;6.952;2022-08-11T15:11:14;5.77;;;2.47;;
14754;SDS011;7469;50.906;6.952;2022-08-11T15:14:02;6.83;;;2.43;;
14754;SDS011;7469;50.906;6.952;2022-08-11T15:16:32;2.83;;;2.23;;
14754;SDS011;7469;50.906;6.952;2022-08-11T15:19:19;3.57;;;2.43;;
14754;SDS011;7469;50.906;6.952;2022-08-11T15:21:48;5.77;;;2.30;;
14754;SDS011;7469;50.906;6.952;2022-08-11T15:24:36;8.43;;;2.50;;
14754;SDS011;7469;50.906;6.952;2022-08-11T15:27:07;2.97;;;2.50;;
14754;SDS011;7469;50.906;6.952;2022-08-11T15:29:56;2.67;;;2.27;;
14754;SDS011;7469;50.906;6.952;2022-08-11T15:33:00;4.33;;;2.33;;
14754;SDS011;7469;50.906;6.952;2022-08-11T15:35:50;4.70;;;2.50;;
14754;SDS011;7469;50.906;6.952;2022-08-11T15:38:39;3.70;;;2.13;;
14754;SDS011;7469;50.906;6.952;2022-08-11T15:41:11;6.50;;;2.50;;
14754;SDS011;7469;50.906;6.952;2022-08-11T15:44:04;3.87;;;2.80;;
14754;SDS011;7469;50.906;6.952;2022-08-11T15:47:21;3.80;;;2.30;;
14754;SDS011;7469;50.906;6.952;2022-08-11T15:49:56;4.97;;;2.40;;
14754;SDS011;7469;50.906;6.952;2022-08-11T15:52:40;6.73;;;2.33;;
14754;SDS011;7469;50.906;6.952;2022-08-11T15:55:14;4.70;;;2.77;;
14754;SDS011;7469;50.906;6.952;2022-08-11T15:57:44;4.73;;;2.50;;
14754;SDS011;7469;50.906;6.952;2022-08-11T16:00:35;4.47;;;2.30;;
14754;SDS011;7469;50.906;6.952;2022-08-11T16:03:30;4.70;;;2.90;;
14754;SDS011;7469;50.906;6.952;2022-08-11T16:06:33;4.60;;;2.80;;
14754;SDS011;7469;50.906;6.952;2022-08-11T16:09:12;4.37;;;2.50;;
14754;SDS011;7469;50.906;6.952;2022-08-11T16:11:43;5.10;;;2.70;;
14754;SDS011;7469;50.906;6.952;2022-08-11T16:14:13;3.17;;;2.50;;
14754;SDS011;7469;50.906;6.952;2022-08-11T16:17:02;2.97;;;2.60;;
14754;SDS011;7469;50.906;6.952;2022-08-11T16:19:33;3.00;;;2.30;;
14754;SDS011;7469;50.906;6.952;2022-08-11T16:22:04;6.07;;;2.50;;
14754;SDS011;7469;50.906;6.952;2022-08-11T16:24:35;4.47;;;2.97;;
14754;SDS011;7469;50.906;6.952;2022-08-11T16:27:29;5.07;;;2.60;;
14754;SDS011;7469;50.906;6.952;2022-08-11T16:30:00;5.93;;;2.70;;
14754;SDS011;7469;50.906;6.952;2022-08-11T16:32:31;3.17;;;2.30;;
14754;SDS011;7469;50.906;6.952;2022-08-11T16:35:10;4.73;;;2.50;;
14754;SDS011;7469;50.906;6.952;2022-08-11T16:37:59;3.73;;;2.40;;
14754;SDS011;7469;50.906;6.952;2022-08-11T16:40:46;5.10;;;2.40;;
14754;SDS011;7469;50.906;6.952;2022-08-11T16:43:18;4.00;;;2.47;;
14754;SDS011;7469;50.906;6.952;2022-08-11T16:46:07;6.40;;;2.83;;
14754;SDS011;7469;50.906;6.952;2022-08-11T16:48:55;7.20;;;2.60;;
14754;SDS011;7469;50.906;6.952;2022-08-11T16:51:25;3.57;;;2.50;;
14754;SDS011;7469;50.906;6.952;2022-08-11T16:53:53;4.33;;;2.57;;
14754;SDS011;7469;50.906;6.952;2022-08-11T16:56:33;3.67;;;2.40;;
14754;SDS011;7469;50.906;6.952;2022-08-11T16:59:05;3.97;;;2.43;;
14754;SDS011;7469;50.906;6.952;2022-08-11T17:01:44;6.03;;;2.67;;
14754;SDS011;7469;50.906;6.952;2022-08-11T17:04:26;4.23;;;2.57;;
14754;SDS011;7469;50.906;6.952;2022-08-11T17:07:14;4.83;;;2.80;;
14754;SDS011;7469;50.906;6.952;2022-08-11T17:10:13;4.03;;;2.63;;
14754;SDS011;7469;50.906;6.952;2022-08-11T17:13:21;5.17;;;2.47;;
14754;SDS011;7469;50.906;6.952;2022-08-11T17:15:53;6.57;;;2.33;;
14754;SDS011;7469;50.906;6.952;2022-08-11T17:18:33;2.60;;;2.30;;
14754;SDS011;7469;50.906;6.952;2022-08-11T17:21:11;4.73;;;2.27;;
14754;SDS011;7469;50.906;6.952;2022-08-11T17:23:44;4.70;;;2.60;;
14754;SDS011;7469;50.906;6.952;2022-08-11T17:26:26;5.23;;;2.40;;
14754;SDS011;7469;50.906;6.952;2022-08-11T17:29:19;6.13;;;2.67;;
14754;SDS011;7469;50.906;6.952;2022-08-11T17:31:49;4.73;;;2.93;;
14754;SDS011;7469;50.906;6.952;2022-08-11T17:34:36;5.83;;;2.43;;
14754;SDS011;7469;50.906;6.952;2022-08-11T17:37:27;3.00;;;2.70;;
14754;SDS011;7469;50.906;6.952;2022-08-11T17:39:58;3.33;;;2.43;;